Tokio, North Dakota
Current Conditions -  °F | °C
As of 12:35 AM on Wednesday 26 Nov 2014 (Local Time) from KDVL Reporting Station
Clear Clear  
Wind Chill: -9°   Ceiling: Unl
Heat Index:   Visibility: 10mi
Dew Point: -6°   Wind: 12mph
Humidity: 56%   Direction: 20°NNE
Pressure: 30.16"   Gusts: NA
Location:  47.92°N, 98.82°W
Report Text: KDVL 260635Z AUTO 02010KT 10SM CLR M14/M21 A3016 RMK AO1
Loading
Personal Weather Stations






























Interactive Weather Map New forecast layout! Learn more

10-Day Weather Forecast

Advertisements
Track Severe Weather on mobile